createdAt,value
2019-01-25T00:01:19.672Z,58.50
2019-01-25T00:03:50.400Z,58.40
2019-01-25T00:06:20.544Z,58.60
2019-01-25T00:11:20.667Z,58.40
2019-01-25T00:13:51.101Z,58.80
2019-01-25T00:16:21.506Z,58.90
2019-01-25T00:18:51.630Z,58.80
2019-01-25T00:21:21.739Z,59.50
2019-01-25T00:23:52.026Z,60.00
2019-01-25T00:26:22.223Z,59.00
2019-01-25T00:28:52.304Z,59.40
2019-01-25T00:31:22.808Z,59.20
2019-01-25T00:33:52.849Z,59.30
2019-01-25T00:36:23.327Z,60.50
2019-01-25T00:38:53.498Z,59.30
2019-01-25T00:41:23.917Z,59.40
2019-01-25T00:43:54.104Z,59.50
2019-01-25T00:46:24.180Z,59.60
2019-01-25T00:48:54.536Z,59.60
2019-01-25T00:51:24.715Z,59.30
2019-01-25T00:53:55.184Z,59.80
2019-01-25T00:56:25.299Z,60.10
2019-01-25T00:58:55.824Z,60.10
2019-01-25T01:01:27.024Z,60.40
2019-01-25T01:03:58.397Z,60.50
2019-01-25T01:08:59.648Z,60.60
2019-01-25T01:11:29.832Z,60.70
2019-01-25T01:13:59.959Z,61.00
2019-01-25T01:16:30.045Z,61.30
2019-01-25T01:19:00.647Z,61.80
2019-01-25T01:21:30.766Z,61.60
2019-01-25T01:24:01.310Z,62.00
2019-01-25T01:26:31.438Z,61.70
2019-01-25T01:29:01.988Z,61.90
2019-01-25T01:31:32.066Z,62.00
2019-01-25T01:34:02.545Z,62.10
2019-01-25T01:36:32.724Z,62.30
2019-01-25T01:39:04.279Z,62.40
2019-01-25T01:41:36.056Z,62.50
2019-01-25T01:44:08.601Z,62.60
2019-01-25T01:46:38.744Z,62.70
2019-01-25T01:51:40.852Z,63.30
2019-01-25T01:54:12.053Z,63.30
2019-01-25T01:56:43.401Z,63.40
2019-01-25T02:01:43.754Z,63.50
2019-01-25T02:04:13.874Z,63.30
2019-01-25T02:06:48.314Z,63.40
2019-01-25T02:09:18.440Z,64.00
2019-01-25T02:11:48.851Z,63.50
2019-01-25T02:14:19.396Z,63.90
2019-01-25T02:16:51.127Z,64.00
2019-01-25T02:19:23.131Z,65.50
2019-01-25T02:21:53.345Z,64.70
2019-01-25T02:24:23.756Z,64.80
2019-01-25T02:26:53.805Z,64.80
2019-01-25T02:29:24.471Z,64.80
2019-01-25T02:31:54.622Z,65.10
2019-01-25T02:34:24.950Z,65.70
2019-01-25T02:36:55.503Z,67.00
2019-01-25T02:39:26.117Z,66.10
2019-01-25T02:41:57.002Z,65.50
2019-01-25T02:44:27.459Z,65.80
2019-01-25T02:46:58.632Z,66.10
2019-01-25T02:49:30.991Z,66.00
2019-01-25T02:52:01.102Z,65.50
2019-01-25T02:54:32.871Z,64.70
2019-01-25T02:57:03.501Z,64.40
2019-01-25T02:59:34.726Z,64.40
2019-01-25T03:02:06.613Z,65.00
2019-01-25T03:04:36.835Z,64.50
2019-01-25T03:07:07.460Z,64.70
2019-01-25T03:09:37.581Z,64.40
2019-01-25T03:14:37.199Z,64.50
2019-01-25T03:17:08.438Z,64.70
2019-01-25T03:19:38.576Z,65.10
2019-01-25T03:22:08.896Z,65.10
2019-01-25T03:24:39.036Z,65.20
2019-01-25T03:27:09.171Z,65.20
2019-01-25T03:29:39.372Z,64.90
2019-01-25T03:32:09.717Z,65.00
2019-01-25T03:34:41.433Z,65.10
2019-01-25T03:37:11.545Z,65.00
2019-01-25T03:39:42.003Z,64.70
2019-01-25T03:42:12.879Z,64.10
2019-01-25T03:44:43.000Z,64.20
2019-01-25T03:47:14.682Z,64.00
2019-01-25T03:49:45.082Z,61.90
2019-01-25T03:52:15.104Z,61.60
2019-01-25T03:54:45.601Z,61.80
2019-01-25T03:57:15.737Z,61.00
2019-01-25T03:59:45.833Z,60.80
2019-01-25T04:02:15.960Z,60.10
2019-01-25T04:04:47.880Z,61.30
2019-01-25T04:07:18.037Z,60.30
2019-01-25T04:09:48.075Z,60.80
2019-01-25T04:12:18.156Z,60.30
2019-01-25T04:14:48.204Z,60.70
2019-01-25T04:17:18.651Z,60.70
2019-01-25T04:19:49.037Z,60.80
2019-01-25T04:22:19.592Z,61.60
2019-01-25T04:24:49.667Z,60.60
2019-01-25T04:29:49.871Z,61.20
2019-01-25T04:32:21.131Z,61.00
2019-01-25T04:34:51.728Z,61.30
2019-01-25T04:37:23.881Z,61.30
2019-01-25T04:42:23.600Z,60.80
2019-01-25T04:44:53.624Z,60.60
2019-01-25T04:47:28.439Z,60.50
2019-01-25T04:49:59.413Z,61.20
2019-01-25T04:52:29.710Z,61.00
2019-01-25T04:55:02.172Z,61.40
2019-01-25T04:57:32.203Z,61.80
2019-01-25T05:00:02.897Z,61.90
2019-01-25T05:02:32.994Z,62.40
2019-01-25T05:05:03.264Z,62.10
2019-01-25T05:07:33.800Z,61.80
2019-01-25T05:10:04.156Z,61.60
2019-01-25T05:12:34.251Z,61.90
2019-01-25T05:15:05.614Z,62.00
2019-01-25T05:17:36.244Z,62.00
2019-01-25T05:20:07.048Z,63.10
2019-01-25T05:25:07.600Z,62.70
2019-01-25T05:27:37.764Z,62.40
2019-01-25T05:30:13.704Z,62.40
2019-01-25T05:32:43.894Z,62.70
2019-01-25T05:40:19.939Z,63.10
2019-01-25T05:47:50.930Z,63.60
2019-01-25T05:50:21.329Z,63.70
2019-01-25T05:52:51.471Z,65.50
2019-01-25T05:55:22.130Z,63.90
2019-01-25T06:05:41.655Z,64.00
2019-01-25T06:13:31.008Z,64.20
2019-01-25T06:16:02.678Z,64.00
2019-01-25T06:23:36.599Z,63.60
2019-01-25T06:26:08.364Z,63.70
2019-01-25T06:31:08.129Z,63.30
2019-01-25T06:36:08.725Z,65.80
2019-01-25T06:41:09.055Z,64.40
2019-01-25T06:43:39.447Z,64.30
2019-01-25T06:48:39.879Z,65.60
2019-01-25T06:53:39.924Z,64.40
2019-01-25T06:56:10.491Z,64.50
2019-01-25T06:59:01.297Z,64.60
2019-01-25T07:04:27.859Z,64.40
2019-01-25T07:06:59.552Z,64.40
2019-01-25T07:09:30.084Z,64.60
2019-01-25T07:12:00.263Z,64.60
2019-01-25T07:14:31.688Z,66.10
2019-01-25T07:19:32.524Z,64.60
2019-01-25T07:22:02.807Z,66.20
2019-01-25T07:24:32.930Z,66.00
2019-01-25T07:27:03.399Z,63.80
2019-01-25T07:29:33.913Z,63.90
2019-01-25T07:32:05.301Z,64.30
2019-01-25T07:34:38.407Z,63.80
2019-01-25T07:37:09.473Z,63.80
2019-01-25T07:39:39.856Z,63.50
2019-01-25T07:44:40.258Z,62.90
2019-01-25T07:47:10.893Z,62.60
2019-01-25T07:49:44.746Z,62.70
2019-01-25T07:52:15.666Z,63.00
2019-01-25T07:54:47.188Z,63.40
2019-01-25T08:02:17.735Z,60.90
2019-01-25T08:04:48.859Z,60.60
2019-01-25T08:12:18.971Z,59.80
2019-01-25T08:14:50.679Z,59.40
2019-01-25T08:17:20.872Z,59.20
2019-01-25T08:19:51.040Z,58.60
2019-01-25T08:22:21.398Z,58.50
2019-01-25T08:24:52.016Z,58.90
2019-01-25T08:27:23.110Z,58.80
2019-01-25T08:30:10.283Z,59.40
2019-01-25T08:37:41.607Z,57.90
2019-01-25T08:40:14.103Z,59.20
2019-01-25T08:50:21.507Z,59.10
2019-01-25T09:00:25.867Z,60.70
2019-01-25T09:05:26.521Z,61.50
2019-01-25T09:07:56.743Z,60.10
2019-01-25T09:10:27.039Z,60.40
2019-01-25T09:12:57.217Z,60.00
2019-01-25T09:15:35.230Z,60.20
2019-01-25T09:18:06.953Z,60.80
2019-01-25T09:23:07.227Z,59.90
2019-01-25T09:25:38.381Z,59.60
2019-01-25T09:28:08.685Z,59.50
2019-01-25T09:38:13.995Z,59.80
2019-01-25T09:50:52.674Z,59.70
2019-01-25T09:53:23.428Z,60.20
2019-01-25T09:55:53.617Z,60.50
2019-01-25T09:58:23.732Z,60.50
2019-01-25T10:01:01.336Z,60.40
2019-01-25T10:03:31.557Z,60.80
2019-01-25T10:06:01.771Z,59.70
2019-01-25T10:08:32.035Z,60.90
2019-01-25T10:11:02.319Z,59.10
2019-01-25T10:13:38.602Z,58.30
2019-01-25T10:16:09.307Z,59.70
2019-01-25T10:18:39.940Z,58.40
2019-01-25T10:21:10.309Z,58.20
2019-01-25T10:23:44.607Z,58.60
2019-01-25T10:26:15.135Z,57.80
2019-01-25T10:28:45.769Z,58.30
2019-01-25T10:31:16.456Z,58.00
2019-01-25T10:33:46.874Z,58.10
2019-01-25T10:36:17.259Z,58.30
2019-01-25T10:38:49.773Z,58.30
2019-01-25T10:41:20.067Z,57.90
2019-01-25T10:43:52.525Z,57.40
2019-01-25T10:46:26.024Z,57.50
2019-01-25T10:48:56.232Z,57.80
2019-01-25T10:51:27.477Z,57.20
2019-01-25T10:53:59.093Z,56.50
2019-01-25T10:56:29.617Z,56.80
2019-01-25T10:58:59.949Z,56.40
2019-01-25T11:01:30.225Z,56.60
2019-01-25T11:04:03.094Z,56.80
2019-01-25T11:06:33.431Z,56.50
2019-01-25T11:09:07.245Z,55.90
2019-01-25T11:11:41.230Z,55.40
2019-01-25T11:14:14.586Z,55.30
2019-01-25T11:16:45.166Z,55.40
2019-01-25T11:19:18.428Z,55.80
2019-01-25T11:21:49.981Z,54.40
2019-01-25T11:24:20.311Z,54.50
2019-01-25T11:26:50.813Z,54.60
2019-01-25T11:29:22.910Z,54.20
2019-01-25T11:31:57.180Z,54.10
2019-01-25T11:34:33.022Z,54.60
2019-01-25T11:37:01.771Z,54.20
2019-01-25T11:39:32.643Z,53.40
2019-01-25T11:42:03.133Z,52.40
2019-01-25T11:44:36.275Z,52.30
2019-01-25T11:47:06.704Z,51.30
2019-01-25T11:49:38.594Z,50.10
2019-01-25T11:52:08.789Z,50.40
2019-01-25T11:57:08.965Z,49.00
2019-01-25T11:59:39.692Z,49.20
2019-01-25T12:02:09.920Z,48.40
2019-01-25T12:04:40.516Z,47.30
2019-01-25T12:07:10.934Z,47.50
2019-01-25T12:09:40.975Z,46.30
2019-01-25T12:14:42.371Z,45.90
2019-01-25T12:17:13.016Z,46.10
2019-01-25T12:19:43.581Z,44.80
2019-01-25T12:22:13.727Z,45.00
2019-01-25T12:24:43.915Z,44.40
2019-01-25T12:27:14.083Z,45.30
2019-01-25T12:29:44.321Z,45.80
2019-01-25T12:32:14.627Z,46.30
2019-01-25T12:34:45.232Z,46.00
2019-01-25T12:37:15.556Z,46.00
2019-01-25T12:39:46.082Z,46.50
2019-01-25T12:42:16.255Z,46.40
2019-01-25T12:44:46.411Z,46.30
2019-01-25T12:47:17.884Z,46.60
2019-01-25T12:49:48.965Z,46.30
2019-01-25T12:52:19.290Z,46.40
2019-01-25T12:54:50.492Z,47.00
2019-01-25T12:57:20.728Z,46.30
2019-01-25T12:59:51.169Z,46.20
2019-01-25T13:02:21.338Z,45.50
2019-01-25T13:04:51.871Z,45.80
2019-01-25T13:07:22.524Z,45.90
2019-01-25T13:09:55.031Z,45.30
2019-01-25T13:12:25.352Z,47.60
2019-01-25T13:14:55.593Z,45.70
2019-01-25T13:17:25.795Z,45.10
2019-01-25T13:19:58.048Z,45.90
2019-01-25T13:22:28.671Z,46.20
2019-01-25T13:24:59.285Z,45.50
2019-01-25T13:27:30.398Z,45.00
2019-01-25T13:30:00.997Z,45.30
2019-01-25T13:32:31.516Z,45.70
2019-01-25T13:35:01.722Z,46.10
2019-01-25T13:37:31.987Z,45.90
2019-01-25T13:40:02.380Z,45.90
2019-01-25T13:42:34.154Z,46.00
2019-01-25T13:45:04.458Z,45.50
2019-01-25T13:47:36.047Z,45.60
2019-01-25T13:50:07.707Z,45.90
2019-01-25T13:52:37.897Z,45.70
2019-01-25T13:55:12.969Z,44.50
2019-01-25T14:00:27.688Z,44.10
2019-01-25T14:02:58.145Z,44.40
2019-01-25T14:05:31.026Z,43.90
2019-01-25T14:08:01.116Z,44.20
2019-01-25T14:10:36.110Z,43.80
2019-01-25T14:13:06.523Z,44.10
2019-01-25T14:15:37.088Z,43.80
2019-01-25T14:18:07.589Z,43.70
2019-01-25T14:20:38.838Z,44.40
2019-01-25T14:23:09.234Z,44.10
2019-01-25T14:25:40.763Z,43.60
2019-01-25T14:28:11.046Z,44.20
2019-01-25T14:30:44.256Z,44.50
2019-01-25T14:33:19.088Z,44.70
2019-01-25T14:35:52.302Z,44.90
2019-01-25T14:38:22.842Z,44.70
2019-01-25T14:40:55.854Z,45.40
2019-01-25T14:43:26.472Z,45.50
2019-01-25T14:45:57.148Z,45.50
2019-01-25T14:51:17.364Z,45.90
2019-01-25T14:53:50.902Z,45.80
2019-01-25T14:56:19.773Z,46.40
2019-01-25T14:58:50.046Z,46.70
2019-01-25T15:01:20.622Z,46.80
2019-01-25T15:03:50.916Z,46.60
2019-01-25T15:06:21.524Z,46.70
2019-01-25T15:08:52.174Z,46.80
2019-01-25T15:11:22.462Z,46.90
2019-01-25T15:13:52.781Z,47.20
2019-01-25T15:16:23.358Z,47.70
2019-01-25T15:21:23.202Z,46.90
2019-01-25T15:23:53.461Z,47.40
2019-01-25T15:26:23.657Z,47.50
2019-01-25T15:28:53.917Z,47.80
2019-01-25T15:31:27.224Z,47.90
2019-01-25T15:33:58.171Z,48.10
2019-01-25T15:36:28.521Z,47.90
2019-01-25T15:38:58.687Z,48.30
2019-01-25T15:41:28.927Z,48.60
2019-01-25T15:44:00.787Z,49.50
2019-01-25T15:46:32.072Z,49.80
2019-01-25T15:54:03.344Z,48.80
2019-01-25T15:56:34.034Z,49.70
2019-01-25T15:59:04.155Z,49.50
2019-01-25T16:01:34.324Z,50.00
2019-01-25T16:04:04.656Z,50.00
2019-01-25T16:06:34.966Z,50.60
2019-01-25T16:09:07.943Z,50.60
2019-01-25T16:11:43.822Z,51.00
2019-01-25T16:14:18.037Z,51.40
2019-01-25T16:16:46.574Z,51.70
2019-01-25T16:19:16.797Z,52.20
2019-01-25T16:21:48.132Z,50.70
2019-01-25T16:24:18.430Z,51.70
2019-01-25T16:26:49.067Z,52.50
2019-01-25T16:29:19.984Z,52.60
2019-01-25T16:31:50.895Z,53.10
2019-01-25T16:34:21.202Z,52.80
2019-01-25T16:36:51.763Z,53.80
2019-01-25T16:39:22.317Z,52.80
2019-01-25T16:41:52.587Z,52.70
2019-01-25T16:44:25.705Z,52.80
2019-01-25T16:46:55.259Z,53.10
2019-01-25T16:49:25.746Z,54.30
2019-01-25T16:51:56.060Z,53.20
2019-01-25T16:54:26.605Z,53.50
2019-01-25T16:56:57.488Z,53.40
2019-01-25T16:59:28.481Z,53.30
2019-01-25T17:01:59.243Z,54.00
2019-01-25T17:04:29.542Z,54.70
2019-01-25T17:07:00.148Z,54.20
2019-01-25T17:09:31.210Z,54.40
2019-01-25T17:12:03.161Z,54.80
2019-01-25T17:14:33.753Z,54.90
2019-01-25T17:19:33.686Z,54.20
2019-01-25T17:22:04.581Z,55.00
2019-01-25T17:24:34.922Z,55.30
2019-01-25T17:27:05.985Z,57.20
2019-01-25T17:29:36.256Z,56.20
2019-01-25T17:32:06.947Z,55.80
2019-01-25T17:34:37.214Z,55.60
2019-01-25T17:37:07.811Z,56.60
2019-01-25T17:39:38.450Z,56.10
2019-01-25T17:44:45.315Z,55.40
2019-01-25T17:47:15.903Z,56.50
2019-01-25T17:49:47.656Z,56.60
2019-01-25T17:52:18.177Z,57.50
2019-01-25T17:54:48.503Z,57.00
2019-01-25T17:57:19.795Z,56.90
2019-01-25T17:59:50.192Z,57.10
2019-01-25T18:02:20.789Z,57.70
2019-01-25T18:04:50.962Z,57.20
2019-01-25T18:07:23.453Z,57.30
2019-01-25T18:09:53.817Z,56.90
2019-01-25T18:12:24.118Z,57.30
2019-01-25T18:14:54.822Z,57.50
2019-01-25T18:17:26.005Z,57.70
2019-01-25T18:19:56.244Z,57.80
2019-01-25T18:22:26.892Z,57.50
2019-01-25T18:24:57.776Z,57.60
2019-01-25T18:27:29.144Z,57.60
2019-01-25T18:30:00.811Z,57.90
2019-01-25T18:32:31.301Z,57.80
2019-01-25T18:35:01.814Z,57.70
2019-01-25T18:37:32.861Z,57.80
2019-01-25T18:40:03.507Z,57.90
2019-01-25T18:42:33.669Z,58.00
2019-01-25T18:45:04.023Z,57.90
2019-01-25T18:47:36.094Z,58.20
2019-01-25T18:50:11.178Z,58.60
2019-01-25T18:52:41.653Z,58.70
2019-01-25T18:55:14.999Z,59.00
2019-01-25T19:00:18.299Z,58.50
2019-01-25T19:02:48.864Z,58.50
2019-01-25T19:05:19.173Z,58.60
2019-01-25T19:07:50.322Z,58.80
2019-01-25T19:10:24.541Z,58.90
2019-01-25T19:12:55.091Z,58.30
2019-01-25T19:15:29.392Z,58.60
2019-01-25T19:17:59.711Z,60.00
2019-01-25T19:20:30.780Z,58.60
2019-01-25T19:23:01.172Z,58.80
2019-01-25T19:25:32.649Z,58.90
2019-01-25T19:30:36.552Z,58.20
2019-01-25T19:33:10.151Z,59.80
2019-01-25T19:35:40.284Z,59.30
2019-01-25T19:38:18.711Z,58.70
2019-01-25T19:40:49.282Z,59.00
2019-01-25T19:43:21.770Z,57.80
2019-01-25T19:48:23.796Z,57.60
2019-01-25T19:50:53.972Z,57.50
2019-01-25T19:53:24.530Z,58.00
2019-01-25T19:58:27.141Z,57.60
2019-01-25T20:03:28.380Z,58.60
2019-01-25T20:05:58.608Z,57.80
2019-01-25T20:08:30.386Z,58.20
2019-01-25T20:11:02.037Z,58.20
2019-01-25T20:13:32.201Z,58.60
2019-01-25T20:16:04.063Z,59.10
2019-01-25T20:18:34.298Z,58.20
2019-01-25T20:21:20.189Z,57.60
2019-01-25T20:23:51.699Z,57.70
2019-01-25T20:28:53.216Z,58.00
2019-01-25T20:31:23.462Z,58.20
2019-01-25T20:33:55.146Z,58.10
2019-01-25T20:36:26.466Z,57.90
2019-01-25T20:38:57.912Z,58.30
2019-01-25T20:41:28.571Z,57.90
2019-01-25T20:44:01.745Z,58.10
2019-01-25T20:46:32.040Z,58.10
2019-01-25T20:51:31.913Z,58.40
2019-01-25T20:54:04.470Z,58.30
2019-01-25T20:59:06.075Z,58.40
2019-01-25T21:01:37.002Z,58.10
2019-01-25T21:04:07.444Z,58.50
2019-01-25T21:06:38.042Z,58.20
2019-01-25T21:09:11.198Z,59.90
2019-01-25T21:11:41.408Z,58.60
2019-01-25T21:14:11.670Z,58.60
2019-01-25T21:16:41.924Z,58.80
2019-01-25T21:19:12.168Z,58.40
2019-01-25T21:21:42.587Z,58.40
2019-01-25T21:24:13.124Z,58.10
2019-01-25T21:26:44.018Z,59.40
2019-01-25T21:29:14.341Z,58.00
2019-01-25T21:31:44.801Z,58.50
2019-01-25T21:34:15.022Z,57.50
2019-01-25T21:36:46.769Z,57.40
2019-01-25T21:39:17.683Z,57.20
2019-01-25T21:41:48.692Z,57.60
2019-01-25T21:44:19.149Z,58.10
2019-01-25T21:46:49.353Z,56.70
2019-01-25T21:49:19.627Z,56.90
2019-01-25T21:51:49.851Z,56.70
2019-01-25T21:54:20.280Z,56.90
2019-01-25T21:56:50.754Z,56.70
2019-01-25T21:59:21.843Z,57.00
2019-01-25T22:01:52.082Z,56.50
2019-01-25T22:04:23.329Z,56.70
2019-01-25T22:06:53.843Z,57.60
2019-01-25T22:09:24.381Z,56.70
2019-01-25T22:11:54.599Z,56.30
2019-01-25T22:14:26.737Z,56.20
2019-01-25T22:16:57.386Z,56.40
2019-01-25T22:19:27.739Z,56.80
2019-01-25T22:21:58.148Z,56.50
2019-01-25T22:24:28.383Z,56.90
2019-01-25T22:26:58.907Z,56.30
2019-01-25T22:29:30.248Z,56.20
2019-01-25T22:32:01.369Z,58.00
2019-01-25T22:34:31.803Z,55.10
2019-01-25T22:37:04.975Z,55.20
2019-01-25T22:39:35.324Z,55.50
2019-01-25T22:42:05.607Z,55.70
2019-01-25T22:44:36.004Z,55.30
2019-01-25T22:47:06.237Z,55.60
2019-01-25T22:49:36.527Z,55.40
2019-01-25T22:52:08.597Z,55.70
2019-01-25T22:54:38.925Z,55.50
2019-01-25T22:57:09.067Z,55.70
2019-01-25T22:59:39.779Z,55.70
2019-01-25T23:02:10.522Z,55.50
2019-01-25T23:05:10.240Z,55.70
2019-01-25T23:07:40.586Z,55.70
2019-01-25T23:10:18.961Z,55.30
2019-01-25T23:12:49.308Z,55.90
2019-01-25T23:15:19.765Z,55.20
2019-01-25T23:17:50.020Z,55.50
2019-01-25T23:20:20.546Z,55.60
2019-01-25T23:22:50.819Z,55.70
2019-01-25T23:25:20.957Z,55.30
2019-01-25T23:27:51.231Z,55.70
2019-01-25T23:30:21.760Z,55.70
2019-01-25T23:32:52.592Z,55.70
2019-01-25T23:35:22.815Z,55.80
2019-01-25T23:37:53.503Z,55.90
2019-01-25T23:40:23.703Z,55.90
2019-01-25T23:42:54.288Z,55.90
2019-01-25T23:45:25.663Z,55.70
2019-01-25T23:47:55.880Z,55.70
2019-01-25T23:50:26.062Z,55.60
2019-01-25T23:52:56.832Z,55.40
2019-01-25T23:55:27.065Z,55.40
2019-01-25T23:57:58.411Z,55.00
